Yaizu, Shizuhama Air Base (RJNY)

NameShizuhama Air Base
CityYaizu
CountryJapan
ICAORJNY
IATA
Altitude23 feet
CoordinatesGoogle Map
Live Air TrafficLiveATC.net
METARRJNY 222010Z 27002KT 9999 FEW030 BKN170 27/25 Q1009 RMK 1CU030 5AC170 A2982
2024-07-22 20:10:00 Wind: West (270°) 1.03 m/s - Visibility: > 10000 m - Temperature: 27 °C - Dew point: 25 °C - Humidity: 88.8% - Pressure: 1009 hPa

Sorry, no flights used the airport in this database.